X  Close Metar Aviation Weather Data     EDDH Hamburg Helmut Schmidt Airport
Temperature
34°F Temperature
28°F Dewpoint
81% Humidity



Wind
2 MPH
3 KM/H
1 M/S
2 KTS



Calm
N
Current Conditions

Overcast Overcast
Pressure 1028.92 (hPa) - 30.38 (inHg)
Visibility 6.2 (mile) - 10 (km)
Airport
Airport-code EDDH

Location: Hamburg Helmut Schmidt Airport
Distance: 11 (mi)

Metar:
EDDH 280050Z AUTO VRB02KT 9999 OVC026 01/M02 Q1029 NOSIG

Time: 28-01-2023 01:50 CET